Time;durP1;ratioP1;P1;durP2;ratioP2;P2;SDS_P1;SDS_P2;PMS_P1;PMS_P2;Temp;Humidity;BMP_temperature;BMP_pressure;BME280_temperature;BME280_humidity;BME280_pressure;Samples;Min_cycle;Max_cycle;Signal;HPM_P1;HPM_P2
2021/09/15 00:01:39;;;;;;;11.70;10.90;;;21.90;99.90;;;;;;4995845;28;20513;-68
2021/09/15 00:04:05;;;;;;;11.67;10.77;;;21.90;99.90;;;;;;4994889;28;20180;-68
2021/09/15 00:06:31;;;;;;;13.33;11.93;;;21.90;99.90;;;;;;4995903;28;20184;-69
2021/09/15 00:08:57;;;;;;;12.57;11.57;;;21.90;99.90;;;;;;4995370;28;20219;-68
2021/09/15 00:11:23;;;;;;;11.97;11.03;;;21.90;99.90;;;;;;4996138;28;20642;-68
2021/09/15 00:13:49;;;;;;;11.63;10.67;;;22.00;99.90;;;;;;4995662;28;20168;-75
2021/09/15 00:16:15;;;;;;;11.77;10.87;;;22.00;99.90;;;;;;4995384;28;20434;-68
2021/09/15 00:18:41;;;;;;;11.60;10.60;;;21.90;99.90;;;;;;4995985;28;20902;-68
2021/09/15 00:21:07;;;;;;;11.40;10.60;;;21.90;99.90;;;;;;4977923;28;20179;-68
2021/09/15 00:23:32;;;;;;;13.10;12.10;;;21.90;99.90;;;;;;4995694;28;20422;-68
2021/09/15 00:25:58;;;;;;;11.57;10.67;;;21.90;99.90;;;;;;4995133;28;20585;-69
2021/09/15 00:28:24;;;;;;;12.90;11.90;;;21.90;99.90;;;;;;4995841;28;20278;-68
2021/09/15 00:30:50;;;;;;;12.40;11.50;;;21.90;99.90;;;;;;4995572;28;20186;-75
2021/09/15 00:33:16;;;;;;;12.10;11.20;;;21.90;99.90;;;;;;4995469;28;20198;-68
2021/09/15 00:35:41;;;;;;;12.00;11.10;;;21.90;99.90;;;;;;4995222;28;20727;-69
2021/09/15 00:38:07;;;;;;;11.83;10.93;;;21.90;99.90;;;;;;4994453;28;20438;-69
2021/09/15 00:40:33;;;;;;;11.90;10.73;;;21.90;99.90;;;;;;4995684;28;20266;-68
2021/09/15 00:42:59;;;;;;;12.93;11.93;;;21.90;99.90;;;;;;4994117;28;20233;-68
2021/09/15 00:45:25;;;;;;;11.90;11.00;;;21.90;99.90;;;;;;4995526;28;20815;-68
2021/09/15 00:47:51;;;;;;;12.33;11.33;;;21.90;99.90;;;;;;4995300;28;20778;-73
2021/09/15 00:50:16;;;;;;;10.90;10.10;;;21.90;99.90;;;;;;4994547;28;20187;-68
2021/09/15 00:52:43;;;;;;;14.17;12.77;;;21.90;99.90;;;;;;4977946;28;20419;-68
2021/09/15 00:55:09;;;;;;;12.40;11.50;;;21.90;99.90;;;;;;4994292;28;20184;-68
2021/09/15 00:57:35;;;;;;;12.67;11.57;;;21.90;99.90;;;;;;4994117;28;20446;-68
2021/09/15 01:00:03;;;;;;;12.23;11.33;;;21.90;99.90;;;;;;4992947;28;20788;-68
2021/09/15 01:02:28;;;;;;;12.90;11.90;;;21.80;99.90;;;;;;4995299;28;20179;-68
2021/09/15 01:04:54;;;;;;;12.80;11.70;;;21.80;99.90;;;;;;4993290;28;20565;-74
2021/09/15 01:07:21;;;;;;;12.90;11.80;;;21.80;99.90;;;;;;4994926;28;20207;-68
2021/09/15 01:09:47;;;;;;;13.87;12.50;;;21.80;99.90;;;;;;4995032;28;20431;-68
2021/09/15 01:12:14;;;;;;;12.10;11.10;;;21.80;99.90;;;;;;4994513;28;20423;-68
2021/09/15 01:14:41;;;;;;;12.40;11.50;;;21.90;99.90;;;;;;4993409;28;20489;-68
2021/09/15 01:17:08;;;;;;;12.20;11.20;;;21.80;99.90;;;;;;4993805;28;20923;-68
2021/09/15 01:19:34;;;;;;;12.93;11.83;;;21.80;99.90;;;;;;4977532;28;20411;-68
2021/09/15 01:22:00;;;;;;;13.53;12.53;;;21.80;99.90;;;;;;4994341;28;20414;-68
2021/09/15 01:24:29;;;;;;;12.63;11.73;;;21.80;99.90;;;;;;4994796;28;20434;-68
2021/09/15 01:26:56;;;;;;;14.03;12.73;;;21.80;99.90;;;;;;4994567;28;20482;-75
2021/09/15 01:29:24;;;;;;;14.97;13.60;;;21.80;99.90;;;;;;4994694;28;20426;-68
2021/09/15 01:31:54;;;;;;;13.70;12.67;;;21.70;99.90;;;;;;4977392;28;20414;-68
2021/09/15 01:34:21;;;;;;;13.70;12.43;;;21.70;99.90;;;;;;4994273;28;20408;-68
2021/09/15 01:36:46;;;;;;;14.37;13.07;;;21.70;99.90;;;;;;4994103;28;20785;-68
2021/09/15 01:39:12;;;;;;;15.37;14.00;;;21.70;99.90;;;;;;4994026;28;20419;-68
2021/09/15 01:41:38;;;;;;;14.27;13.00;;;21.70;99.90;;;;;;4994215;28;20519;-68
2021/09/15 01:44:03;;;;;;;15.20;14.00;;;21.70;99.90;;;;;;4993700;28;20176;-68
2021/09/15 01:46:29;;;;;;;15.10;13.90;;;21.70;99.90;;;;;;4993811;28;20636;-68
2021/09/15 01:48:55;;;;;;;16.27;15.00;;;21.70;99.90;;;;;;4993957;28;20278;-73
2021/09/15 01:51:20;;;;;;;14.30;13.20;;;21.70;99.90;;;;;;4993943;28;20650;-68
2021/09/15 01:53:46;;;;;;;15.57;14.23;;;21.70;99.90;;;;;;4994323;28;20178;-68
2021/09/15 01:56:12;;;;;;;15.57;13.77;;;21.70;99.90;;;;;;4993142;28;20176;-68
2021/09/15 01:58:37;;;;;;;14.87;13.47;;;21.70;99.90;;;;;;4993627;28;20187;-68
2021/09/15 02:01:03;;;;;;;15.80;14.50;;;21.70;99.90;;;;;;4993074;28;20612;-69
2021/09/15 02:03:29;;;;;;;15.23;13.70;;;21.70;99.90;;;;;;4976803;28;20250;-68
2021/09/15 02:05:55;;;;;;;16.03;14.63;;;21.60;99.90;;;;;;4993443;28;20297;-72
2021/09/15 02:08:20;;;;;;;15.17;13.87;;;21.60;99.90;;;;;;4975910;28;20215;-68
2021/09/15 02:10:46;;;;;;;15.17;13.70;;;21.70;99.90;;;;;;4993499;28;20183;-68
2021/09/15 02:13:12;;;;;;;15.90;14.50;;;21.60;99.90;;;;;;4993043;28;20184;-69
2021/09/15 02:15:37;;;;;;;13.90;12.60;;;21.60;99.90;;;;;;4993891;28;20176;-68
2021/09/15 02:18:03;;;;;;;14.10;13.00;;;21.60;99.90;;;;;;4993052;28;20255;-69
2021/09/15 02:20:29;;;;;;;14.33;13.17;;;21.60;99.90;;;;;;4993523;28;20230;-68
2021/09/15 02:22:54;;;;;;;15.47;14.27;;;21.70;99.90;;;;;;4993486;28;20653;-68
2021/09/15 02:25:20;;;;;;;15.97;14.77;;;21.60;99.90;;;;;;4992824;28;20241;-68
2021/09/15 02:27:46;;;;;;;16.50;15.20;;;21.70;99.90;;;;;;4993510;28;20233;-68
2021/09/15 02:30:12;;;;;;;15.90;14.50;;;21.60;99.90;;;;;;4992841;28;20653;-68
2021/09/15 02:32:38;;;;;;;15.60;14.30;;;21.60;99.90;;;;;;4993328;28;20784;-68
2021/09/15 02:35:04;;;;;;;16.03;14.83;;;21.60;99.90;;;;;;4992843;28;20411;-69
2021/09/15 02:37:29;;;;;;;16.30;14.83;;;21.60;99.90;;;;;;4993408;28;20188;-69
2021/09/15 02:39:55;;;;;;;16.87;15.37;;;21.60;99.90;;;;;;4993160;28;20435;-68
2021/09/15 02:42:21;;;;;;;18.23;16.60;;;21.60;99.90;;;;;;4992395;28;20176;-68
2021/09/15 02:44:47;;;;;;;17.90;16.50;;;21.60;99.90;;;;;;4993084;28;20199;-68
2021/09/15 02:47:12;;;;;;;18.03;16.60;;;21.60;99.90;;;;;;4992212;28;20270;-68
2021/09/15 02:49:38;;;;;;;19.23;17.63;;;21.60;99.90;;;;;;4975871;28;20175;-68
2021/09/15 02:52:04;;;;;;;18.10;16.70;;;21.60;99.90;;;;;;4992371;28;20176;-68
2021/09/15 02:54:30;;;;;;;19.50;17.80;;;21.60;99.90;;;;;;4993193;28;20689;-68
2021/09/15 02:56:55;;;;;;;19.70;18.00;;;21.60;99.90;;;;;;4993426;28;20176;-68
2021/09/15 02:59:21;;;;;;;19.23;17.63;;;21.60;99.90;;;;;;4992504;28;20628;-68
2021/09/15 03:01:47;;;;;;;19.27;17.67;;;21.60;99.90;;;;;;4992537;28;20250;-68
2021/09/15 03:04:12;;;;;;;19.97;18.10;;;21.60;99.90;;;;;;4991924;28;20175;-68
2021/09/15 03:06:38;;;;;;;20.03;18.40;;;21.60;99.90;;;;;;4992147;28;20609;-68
2021/09/15 03:09:04;;;;;;;20.77;19.13;;;21.60;99.90;;;;;;4991868;28;20255;-68
2021/09/15 03:11:30;;;;;;;18.07;16.57;;;21.60;99.90;;;;;;4975612;28;20262;-67
2021/09/15 03:13:56;;;;;;;19.23;17.73;;;21.60;99.90;;;;;;4992603;28;20206;-67
2021/09/15 03:16:23;;;;;;;19.60;17.87;;;21.60;99.90;;;;;;4991882;28;20179;-68
2021/09/15 03:18:49;;;;;;;20.33;18.60;;;21.60;99.90;;;;;;4992864;28;20254;-67
2021/09/15 03:21:14;;;;;;;19.53;17.87;;;21.60;99.90;;;;;;4991635;28;20414;-67
2021/09/15 03:23:40;;;;;;;20.43;18.73;;;21.50;99.90;;;;;;4992821;28;20179;-68
2021/09/15 03:26:06;;;;;;;19.50;17.90;;;21.50;99.90;;;;;;4992048;28;20179;-67
2021/09/15 03:28:31;;;;;;;21.73;19.93;;;21.50;99.90;;;;;;4992767;28;20303;-67
2021/09/15 03:30:57;;;;;;;20.67;18.93;;;21.50;99.90;;;;;;4992818;28;20172;-68
2021/09/15 03:33:23;;;;;;;18.20;16.73;;;21.50;99.90;;;;;;4991361;28;20176;-68
2021/09/15 03:35:48;;;;;;;18.83;17.43;;;21.50;99.90;;;;;;4975241;28;20179;-68
2021/09/15 03:38:14;;;;;;;18.93;17.23;;;21.50;99.90;;;;;;4991856;28;20183;-68
2021/09/15 03:40:40;;;;;;;18.53;17.00;;;21.50;99.90;;;;;;4992705;28;20186;-67
2021/09/15 03:43:05;;;;;;;19.27;17.63;;;21.50;99.90;;;;;;4991729;28;20268;-68
2021/09/15 03:45:31;;;;;;;19.63;18.03;;;21.50;99.90;;;;;;4992588;28;20690;-67
2021/09/15 03:47:57;;;;;;;18.40;16.90;;;21.50;99.90;;;;;;4992557;28;20203;-67
2021/09/15 03:50:22;;;;;;;20.90;19.33;;;21.50;99.90;;;;;;4991374;28;20176;-68
2021/09/15 03:52:48;;;;;;;20.87;19.03;;;21.50;99.90;;;;;;4992688;28;20259;-67
2021/09/15 03:55:14;;;;;;;21.27;19.37;;;21.50;99.90;;;;;;4992057;28;20606;-68
2021/09/15 03:57:39;;;;;;;22.47;20.67;;;21.50;99.90;;;;;;4975072;28;20175;-67
2021/09/15 04:00:06;;;;;;;21.67;19.87;;;21.50;99.90;;;;;;4992067;28;20754;-73
2021/09/15 04:02:31;;;;;;;20.50;18.63;;;21.50;99.90;;;;;;4992274;28;20266;-68
2021/09/15 04:04:57;;;;;;;18.63;17.03;;;21.50;99.90;;;;;;4991533;28;20467;-67
2021/09/15 04:07:23;;;;;;;21.63;19.70;;;21.50;99.90;;;;;;4991567;28;20773;-67
2021/09/15 04:09:48;;;;;;;22.60;20.80;;;21.50;99.90;;;;;;4975145;28;20307;-67
2021/09/15 04:12:14;;;;;;;20.13;18.53;;;21.50;99.90;;;;;;4991674;28;20179;-67
2021/09/15 04:14:41;;;;;;;19.13;17.60;;;21.50;99.90;;;;;;4992268;28;20270;-68
2021/09/15 04:17:07;;;;;;;19.93;18.23;;;21.50;99.90;;;;;;4991690;28;20180;-72
2021/09/15 04:19:33;;;;;;;18.80;17.20;;;21.50;99.90;;;;;;4962445;28;20407;-68
2021/09/15 04:21:59;;;;;;;20.00;18.40;;;21.50;99.90;;;;;;4995758;28;20431;-67
2021/09/15 04:32:51;;;;;;;19.30;17.60;;;21.50;99.90;;;;;;4995838;28;20399;-68
2021/09/15 04:35:17;;;;;;;29.73;27.03;;;21.50;99.90;;;;;;4994400;28;20433;-69
2021/09/15 04:37:43;;;;;;;18.90;17.23;;;21.40;99.90;;;;;;4995600;28;20176;-67
2021/09/15 04:40:09;;;;;;;16.10;14.90;;;21.40;99.90;;;;;;4994687;28;20198;-68
2021/09/15 04:42:35;;;;;;;16.03;14.73;;;21.40;99.90;;;;;;4978436;28;20179;-68
2021/09/15 04:45:01;;;;;;;16.70;15.40;;;21.40;99.90;;;;;;4995888;28;20434;-68
2021/09/15 04:47:26;;;;;;;16.93;15.63;;;21.30;99.90;;;;;;4994661;28;20458;-67
2021/09/15 04:49:52;;;;;;;17.07;15.50;;;21.10;99.90;;;;;;4995514;28;20179;-67
2021/09/15 04:52:18;;;;;;;16.40;15.20;;;21.00;99.90;;;;;;4994402;28;20172;-67
2021/09/15 04:54:43;;;;;;;17.43;16.07;;;20.80;99.90;;;;;;4995392;28;20263;-67
2021/09/15 04:57:09;;;;;;;17.63;16.13;;;20.70;99.90;;;;;;4994597;28;20265;-73
2021/09/15 04:59:36;;;;;;;17.77;16.07;;;20.70;99.90;;;;;;4995081;28;20190;-67
2021/09/15 05:02:02;;;;;;;16.97;15.37;;;20.80;99.90;;;;;;4995287;28;20201;-68
2021/09/15 05:04:27;;;;;;;16.50;15.00;;;20.80;99.90;;;;;;4994082;28;20973;-68
2021/09/15 05:06:55;;;;;;;18.83;16.87;;;20.80;99.90;;;;;;4994999;28;20423;-67
2021/09/15 05:09:20;;;;;;;16.37;15.00;;;20.90;99.90;;;;;;4994301;28;20194;-68
2021/09/15 05:11:46;;;;;;;17.07;15.67;;;20.90;99.90;;;;;;4994901;28;20431;-68
2021/09/15 05:14:12;;;;;;;17.37;15.50;;;21.00;99.90;;;;;;4994302;28;20172;-67
2021/09/15 05:16:37;;;;;;;16.67;15.27;;;21.00;99.90;;;;;;4995025;28;20184;-67
2021/09/15 05:19:03;;;;;;;16.17;14.73;;;21.10;99.90;;;;;;4994902;28;20242;-68
2021/09/15 05:21:29;;;;;;;16.33;14.93;;;21.10;99.90;;;;;;4993790;28;20176;-68
2021/09/15 05:23:55;;;;;;;18.03;16.43;;;21.20;99.90;;;;;;4994466;28;20182;-68
2021/09/15 05:26:21;;;;;;;17.93;16.43;;;21.20;99.90;;;;;;4993979;28;20659;-67
2021/09/15 05:28:46;;;;;;;19.10;17.40;;;21.20;99.90;;;;;;4993986;28;20213;-67
2021/09/15 05:31:12;;;;;;;18.40;16.70;;;21.30;99.90;;;;;;4993154;28;20450;-68
2021/09/15 05:33:38;;;;;;;18.07;16.47;;;21.30;99.90;;;;;;4994179;28;20180;-68
2021/09/15 05:36:04;;;;;;;18.80;17.30;;;21.30;99.90;;;;;;4994124;28;20643;-68
2021/09/15 05:38:30;;;;;;;17.37;15.87;;;21.30;99.90;;;;;;4993600;28;20801;-67
2021/09/15 05:40:55;;;;;;;17.30;15.47;;;21.30;99.90;;;;;;4994518;28;20406;-68
2021/09/15 05:43:21;;;;;;;17.57;16.07;;;21.40;99.90;;;;;;4976324;28;20186;-68
2021/09/15 05:45:47;;;;;;;19.10;17.70;;;21.40;99.90;;;;;;4993656;28;20186;-67
2021/09/15 05:48:12;;;;;;;19.23;17.53;;;21.40;99.90;;;;;;4993569;28;20207;-70
2021/09/15 05:50:38;;;;;;;17.23;15.73;;;21.40;99.90;;;;;;4994146;28;20190;-68
2021/09/15 05:53:04;;;;;;;13.40;12.40;;;21.40;99.90;;;;;;4994444;28;20234;-68
2021/09/15 05:55:29;;;;;;;17.80;16.40;;;21.40;99.90;;;;;;4976019;28;20182;-74
2021/09/15 05:57:56;;;;;;;19.07;17.43;;;21.50;99.90;;;;;;4992950;28;20591;-74
2021/09/15 06:00:22;;;;;;;17.30;15.80;;;21.70;99.90;;;;;;4993262;28;20178;-73
2021/09/15 06:02:48;;;;;;;16.90;15.50;;;21.70;99.90;;;;;;4994352;28;20453;-74
2021/09/15 06:05:13;;;;;;;17.10;15.70;;;21.80;99.90;;;;;;4972411;28;20463;-76
2021/09/15 06:07:39;;;;;;;17.57;16.07;;;21.90;99.90;;;;;;4974271;28;20234;-74
2021/09/15 06:10:05;;;;;;;17.30;15.80;;;22.00;99.90;;;;;;4968038;28;20599;-74
2021/09/15 06:12:31;;;;;;;17.27;15.83;;;22.00;99.90;;;;;;4952128;29;20181;-74
2021/09/15 06:14:58;;;;;;;17.33;15.83;;;22.10;99.90;;;;;;4964834;28;20423;-74
2021/09/15 06:17:24;;;;;;;16.83;15.43;;;22.10;99.90;;;;;;4959425;28;20451;-74
2021/09/15 06:19:49;;;;;;;17.90;16.37;;;22.10;99.90;;;;;;4954847;29;20420;-74
2021/09/15 06:22:15;;;;;;;18.23;16.57;;;22.10;99.90;;;;;;4953297;29;20181;-74
2021/09/15 06:24:41;;;;;;;16.50;15.00;;;22.10;99.90;;;;;;4955245;29;20187;-74
2021/09/15 06:27:07;;;;;;;17.10;15.70;;;22.10;99.90;;;;;;4955068;29;20204;-74
2021/09/15 06:29:33;;;;;;;18.87;17.30;;;22.00;99.90;;;;;;4954552;29;20425;-74
2021/09/15 06:31:58;;;;;;;18.63;17.17;;;21.80;99.90;;;;;;4955305;29;20185;-74
2021/09/15 06:34:24;;;;;;;16.83;15.23;;;21.70;99.90;;;;;;4954146;29;20173;-74
2021/09/15 06:36:50;;;;;;;15.27;14.03;;;21.50;99.90;;;;;;4953877;29;20396;-74
2021/09/15 06:39:15;;;;;;;17.33;15.90;;;21.50;99.90;;;;;;4954539;29;20205;-74
2021/09/15 06:41:41;;;;;;;19.60;17.80;;;21.40;99.90;;;;;;4954990;28;20212;-73
2021/09/15 06:44:07;;;;;;;17.47;15.80;;;21.40;99.90;;;;;;4955310;28;20685;-74
2021/09/15 06:46:33;;;;;;;16.90;15.50;;;21.50;99.90;;;;;;4954155;29;20177;-74
2021/09/15 06:48:58;;;;;;;16.37;14.93;;;21.40;99.90;;;;;;4954612;29;20201;-74
2021/09/15 06:51:24;;;;;;;15.03;13.63;;;21.50;99.90;;;;;;4954616;29;20181;-74
2021/09/15 06:53:50;;;;;;;15.53;14.03;;;21.50;99.90;;;;;;4954969;28;20232;-74
2021/09/15 06:56:15;;;;;;;15.17;13.70;;;21.70;99.90;;;;;;4954254;29;20215;-74
2021/09/15 06:58:41;;;;;;;14.13;13.00;;;21.70;99.90;;;;;;4954850;29;20191;-74
2021/09/15 07:01:07;;;;;;;14.40;13.30;;;21.70;99.90;;;;;;4954609;29;20268;-74
2021/09/15 07:03:33;;;;;;;13.50;12.47;;;21.50;99.90;;;;;;4954126;28;20535;-74
2021/09/15 07:05:58;;;;;;;15.60;14.13;;;21.50;99.90;;;;;;4985425;28;20226;-74
2021/09/15 07:08:25;;;;;;;13.93;12.83;;;21.60;99.90;;;;;;4992461;28;20207;-74
2021/09/15 07:10:50;;;;;;;13.17;12.17;;;21.60;99.90;;;;;;4993100;28;20183;-73
2021/09/15 07:13:16;;;;;;;13.60;12.40;;;21.70;99.90;;;;;;4992739;28;20752;-72
2021/09/15 07:15:42;;;;;;;13.33;12.00;;;21.70;99.90;;;;;;4993408;28;20168;-72
2021/09/15 07:18:07;;;;;;;13.90;12.80;;;21.50;99.90;;;;;;4992942;28;20650;-72
2021/09/15 07:20:34;;;;;;;13.47;12.27;;;21.30;99.90;;;;;;4992730;28;20367;-69
2021/09/15 07:23:00;;;;;;;13.70;12.50;;;21.30;99.90;;;;;;4993304;28;20175;-69
2021/09/15 07:25:25;;;;;;;14.80;13.57;;;21.30;99.90;;;;;;4992596;28;20414;-70
2021/09/15 07:27:51;;;;;;;14.57;13.37;;;21.30;99.90;;;;;;4993182;28;20212;-71
2021/09/15 07:30:17;;;;;;;14.13;12.93;;;21.40;99.90;;;;;;4992636;28;20186;-70
2021/09/15 07:32:43;;;;;;;14.80;13.50;;;21.40;99.90;;;;;;4993040;28;20642;-70
2021/09/15 07:35:10;;;;;;;14.13;12.93;;;21.50;99.90;;;;;;4993056;28;20181;-70
2021/09/15 07:37:37;;;;;;;16.10;14.70;;;21.50;99.90;;;;;;4992766;28;20649;-70
2021/09/15 07:40:05;;;;;;;26.80;24.10;;;21.50;99.90;;;;;;4975817;28;20441;-70
2021/09/15 07:42:30;;;;;;;17.00;15.70;;;21.60;99.90;;;;;;4991986;28;20409;-71
2021/09/15 07:44:56;;;;;;;15.50;13.97;;;21.60;99.90;;;;;;4993254;28;20851;-70
2021/09/15 07:47:22;;;;;;;14.10;13.00;;;21.60;99.90;;;;;;4992069;28;20291;-70
2021/09/15 07:49:49;;;;;;;12.50;11.40;;;21.60;99.90;;;;;;4993027;28;20180;-69
2021/09/15 07:52:15;;;;;;;11.93;11.00;;;21.70;99.90;;;;;;4992940;28;20176;-73
2021/09/15 07:54:41;;;;;;;12.00;11.10;;;21.70;99.90;;;;;;4995993;28;20811;-69
2021/09/15 07:57:08;;;;;;;11.60;10.73;;;21.70;99.90;;;;;;4996660;28;20176;-70
2021/09/15 07:59:33;;;;;;;12.57;11.60;;;21.70;99.90;;;;;;4996250;28;20171;-70
2021/09/15 08:01:59;;;;;;;13.60;12.50;;;21.70;99.90;;;;;;4996791;28;20472;-70
2021/09/15 08:04:25;;;;;;;12.23;11.33;;;21.70;99.90;;;;;;4995760;28;20227;-69
2021/09/15 08:06:51;;;;;;;11.53;10.53;;;21.70;99.90;;;;;;4996709;28;20186;-69
2021/09/15 08:09:17;;;;;;;12.43;11.43;;;21.80;99.90;;;;;;4996164;28;20207;-79
2021/09/15 08:11:43;;;;;;;11.80;10.90;;;21.80;99.90;;;;;;4996588;28;20167;-69
2021/09/15 08:14:08;;;;;;;11.10;10.10;;;21.80;99.90;;;;;;4996503;28;20901;-69
2021/09/15 08:16:34;;;;;;;10.90;10.03;;;21.80;99.90;;;;;;4995861;28;20414;-69
2021/09/15 08:19:02;;;;;;;10.37;9.57;;;21.70;99.90;;;;;;4996541;28;20238;-70
2021/09/15 08:21:28;;;;;;;11.10;10.20;;;21.80;99.90;;;;;;4995846;28;20179;-69
2021/09/15 08:23:54;;;;;;;9.50;8.73;;;21.80;99.90;;;;;;4978955;28;20407;-69
2021/09/15 08:26:20;;;;;;;10.30;9.40;;;21.90;99.90;;;;;;4961767;28;20426;-69
2021/09/15 08:28:47;;;;;;;10.70;9.70;;;21.90;99.90;;;;;;4996179;28;20459;-70
2021/09/15 08:31:12;;;;;;;9.47;8.67;;;21.90;99.90;;;;;;4996131;28;20242;-69
2021/09/15 08:33:38;;;;;;;9.77;9.07;;;22.00;99.90;;;;;;4995565;28;20451;-69
2021/09/15 08:36:04;;;;;;;11.20;9.03;;;22.00;99.90;;;;;;4996167;28;20426;-69
2021/09/15 08:38:30;;;;;;;9.13;8.37;;;22.00;99.90;;;;;;4995484;28;20434;-69
2021/09/15 08:40:56;;;;;;;9.87;8.97;;;21.80;99.90;;;;;;4996318;28;20745;-69
2021/09/15 08:43:22;;;;;;;9.40;8.80;;;21.90;99.90;;;;;;4995792;28;20179;-70
2021/09/15 08:45:48;;;;;;;9.70;8.90;;;21.90;99.90;;;;;;4978595;28;20168;-69
2021/09/15 08:48:18;;;;;;;9.90;9.10;;;21.90;99.90;;;;;;4995799;28;20482;-69
2021/09/15 08:50:50;;;;;;;9.50;8.70;;;22.00;99.90;;;;;;4995860;28;20403;-69
2021/09/15 08:53:19;;;;;;;9.40;8.70;;;22.00;99.90;;;;;;4978025;28;20426;-70
2021/09/15 08:55:46;;;;;;;10.10;9.20;;;22.10;99.90;;;;;;4995725;28;20494;-69
2021/09/15 08:58:15;;;;;;;10.20;9.30;;;22.10;99.90;;;;;;4995370;28;20453;-69
2021/09/15 09:00:43;;;;;;;9.23;8.63;;;22.00;99.90;;;;;;4995001;28;20403;-69
2021/09/15 09:03:09;;;;;;;9.70;9.00;;;22.00;99.90;;;;;;4995476;28;20949;-69
2021/09/15 09:05:35;;;;;;;8.90;8.10;;;21.90;99.90;;;;;;4994443;28;20820;-69
2021/09/15 09:08:01;;;;;;;9.63;8.93;;;21.90;99.90;;;;;;4995417;28;20549;-69
2021/09/15 09:10:33;;;;;;;8.27;7.50;;;22.00;99.90;;;;;;4995129;28;20421;-69
2021/09/15 09:12:58;;;;;;;9.07;8.47;;;22.00;99.90;;;;;;4995941;28;20168;-70
2021/09/15 09:15:26;;;;;;;8.50;7.90;;;22.00;99.90;;;;;;4977475;28;20897;-70
2021/09/15 09:17:57;;;;;;;9.13;8.37;;;22.00;99.90;;;;;;4995610;28;20270;-71
2021/09/15 09:20:30;;;;;;;8.30;7.70;;;22.10;99.90;;;;;;4994799;28;20411;-69
2021/09/15 09:23:02;;;;;;;8.50;7.90;;;22.10;99.90;;;;;;4995607;28;20810;-69
2021/09/15 09:25:31;;;;;;;8.73;7.80;;;22.20;99.90;;;;;;4994641;28;20747;-69
2021/09/15 09:27:57;;;;;;;10.30;7.87;;;22.20;99.90;;;;;;4995108;28;20497;-69
2021/09/15 09:30:33;;;;;;;8.00;7.40;;;22.20;99.90;;;;;;4994523;28;20407;-69
2021/09/15 09:32:59;;;;;;;8.27;7.67;;;22.30;99.90;;;;;;4995111;28;20776;-69
2021/09/15 09:35:44;;;;;;;9.17;8.47;;;22.30;99.90;;;;;;4994392;28;20418;-69
2021/09/15 09:38:27;;;;;;;8.40;7.77;;;22.30;99.90;;;;;;4995007;28;20180;-69
2021/09/15 09:41:04;;;;;;;8.83;8.03;;;22.30;99.90;;;;;;4994998;28;20399;-69
2021/09/15 09:43:36;;;;;;;8.70;8.00;;;22.30;99.90;;;;;;4994341;28;20408;-69
2021/09/15 09:46:03;;;;;;;8.20;7.60;;;22.30;99.90;;;;;;4994895;28;20395;-69
2021/09/15 09:48:30;;;;;;;8.23;7.63;;;22.30;99.90;;;;;;4994043;28;20455;-70
2021/09/15 09:50:55;;;;;;;8.70;7.80;;;22.30;99.90;;;;;;4994405;28;20427;-69
2021/09/15 09:53:21;;;;;;;10.20;9.53;;;22.30;99.90;;;;;;4994369;28;20874;-69
2021/09/15 09:55:49;;;;;;;10.70;9.83;;;22.30;99.90;;;;;;4994344;28;20172;-67
2021/09/15 09:58:21;;;;;;;8.30;7.60;;;22.20;99.90;;;;;;4994548;28;20670;-69
2021/09/15 10:00:47;;;;;;;17.53;16.00;;;22.30;99.90;;;;;;4993856;28;20415;-69
2021/09/15 10:03:13;;;;;;;9.00;8.30;;;22.30;99.90;;;;;;4977269;28;20411;-69
2021/09/15 10:05:39;;;;;;;9.23;8.57;;;22.30;99.90;;;;;;4993309;28;20950;-69
2021/09/15 10:08:09;;;;;;;8.50;7.90;;;22.30;99.90;;;;;;4994311;28;20626;-69
2021/09/15 10:10:36;;;;;;;9.03;8.27;;;22.20;99.90;;;;;;4993743;28;20745;-68
2021/09/15 10:13:02;;;;;;;8.87;8.07;;;22.20;99.90;;;;;;4994341;28;20411;-69
2021/09/15 10:15:28;;;;;;;8.50;8.00;;;22.20;99.90;;;;;;4993188;28;20489;-68
2021/09/15 10:17:56;;;;;;;9.13;8.43;;;22.20;99.90;;;;;;4994101;28;20427;-69
2021/09/15 10:20:26;;;;;;;8.00;7.40;;;22.30;99.90;;;;;;4994056;28;20443;-67
2021/09/15 10:22:52;;;;;;;6.80;6.40;;;22.30;99.90;;;;;;4994016;28;20419;-69
2021/09/15 10:25:28;;;;;;;8.90;8.20;;;22.30;99.90;;;;;;4994021;28;20411;-70
2021/09/15 10:27:59;;;;;;;8.20;7.60;;;22.30;99.90;;;;;;4993794;28;20446;-67
2021/09/15 10:30:51;;;;;;;8.13;7.53;;;22.40;99.90;;;;;;4993778;28;20454;-83
2021/09/15 10:33:35;;;;;;;7.43;6.83;;;22.40;99.90;;;;;;4993937;28;20407;-69
2021/09/15 10:36:03;;;;;;;8.30;7.47;;;22.40;99.90;;;;;;4993572;28;20415;-67
2021/09/15 10:38:53;;;;;;;8.90;8.20;;;22.50;99.90;;;;;;4993146;28;20451;-68
2021/09/15 10:41:31;;;;;;;7.77;7.07;;;22.50;99.90;;;;;;4993517;28;20407;-67
2021/09/15 10:44:14;;;;;;;8.10;7.50;;;22.40;99.90;;;;;;4993496;28;20418;-69
2021/09/15 10:46:41;;;;;;;8.00;7.50;;;22.40;99.90;;;;;;4992559;28;20402;-67
2021/09/15 10:49:22;;;;;;;9.07;8.33;;;22.40;99.90;;;;;;4993473;28;20458;-67
2021/09/15 10:52:07;;;;;;;9.43;8.73;;;22.40;99.90;;;;;;4992680;28;21025;-67
2021/09/15 10:54:41;;;;;;;8.00;7.47;;;22.40;99.90;;;;;;4992980;28;20414;-68
2021/09/15 10:57:30;;;;;;;8.40;7.80;;;22.30;99.90;;;;;;4993446;28;20898;-68
2021/09/15 11:00:05;;;;;;;9.80;8.97;;;22.30;99.90;;;;;;4993766;28;20423;-68
2021/09/15 11:02:41;;;;;;;10.00;8.50;;;22.30;99.90;;;;;;4975341;28;20395;-68
2021/09/15 11:05:25;;;;;;;9.70;9.00;;;22.30;99.90;;;;;;4993280;28;20470;-68
2021/09/15 11:07:51;;;;;;;9.73;9.03;;;22.20;99.90;;;;;;4992726;28;20473;-68
2021/09/15 11:10:35;;;;;;;9.67;8.97;;;22.20;99.90;;;;;;4975964;28;20514;-68
2021/09/15 11:13:03;;;;;;;10.07;9.30;;;22.20;99.90;;;;;;4976024;28;20183;-68
2021/09/15 11:15:36;;;;;;;9.00;8.20;;;22.20;99.90;;;;;;4992767;28;20412;-68
2021/09/15 11:18:03;;;;;;;8.60;8.00;;;22.20;99.90;;;;;;4993376;28;20435;-68
2021/09/15 11:20:32;;;;;;;9.40;8.60;;;22.10;99.90;;;;;;4992631;28;20422;-68
2021/09/15 11:23:06;;;;;;;11.00;10.00;;;22.10;99.90;;;;;;4993315;28;20465;-68
2021/09/15 11:25:32;;;;;;;11.97;11.17;;;22.10;99.90;;;;;;4992671;28;20458;-67
2021/09/15 11:28:10;;;;;;;12.53;11.67;;;22.10;99.90;;;;;;4991973;28;20788;-68
2021/09/15 11:30:39;;;;;;;10.37;9.60;;;22.10;99.90;;;;;;4992681;28;20794;-68
2021/09/15 11:33:06;;;;;;;10.97;10.07;;;22.10;99.90;;;;;;4993139;28;20411;-68
2021/09/15 11:35:34;;;;;;;11.20;10.27;;;22.10;99.90;;;;;;4992406;28;20411;-68
2021/09/15 11:38:01;;;;;;;10.70;10.00;;;22.10;99.90;;;;;;4993009;28;20458;-68
2021/09/15 11:40:29;;;;;;;10.10;9.40;;;22.10;99.90;;;;;;4975745;28;20906;-68
2021/09/15 11:42:56;;;;;;;10.00;9.30;;;22.10;99.90;;;;;;4992972;28;20435;-68
2021/09/15 11:45:23;;;;;;;9.43;8.63;;;22.10;99.90;;;;;;4993031;28;20407;-69
2021/09/15 11:47:54;;;;;;;10.40;9.70;;;22.10;99.90;;;;;;4992381;28;20725;-68
2021/09/15 11:50:34;;;;;;;10.57;9.67;;;22.00;99.90;;;;;;4993072;28;20395;-70
2021/09/15 11:53:07;;;;;;;9.50;8.63;;;22.00;99.90;;;;;;4992750;28;20926;-70
2021/09/15 11:55:42;;;;;;;9.37;8.70;;;22.00;99.90;;;;;;4992487;28;20740;-71
2021/09/15 11:58:08;;;;;;;9.93;9.13;;;22.00;99.90;;;;;;4993010;28;20894;-71
2021/09/15 12:00:40;;;;;;;9.77;9.00;;;22.00;99.90;;;;;;4974801;28;20439;-71
2021/09/15 12:03:06;;;;;;;9.00;8.33;;;22.10;99.90;;;;;;4993024;28;20410;-70
2021/09/15 12:05:32;;;;;;;9.17;8.57;;;22.10;99.90;;;;;;4992013;28;20517;-72
2021/09/15 12:07:59;;;;;;;9.60;8.90;;;22.10;99.90;;;;;;4992741;28;20821;-70
2021/09/15 12:10:26;;;;;;;9.47;8.73;;;22.10;99.90;;;;;;4975489;28;20450;-71
2021/09/15 12:12:55;;;;;;;8.90;8.13;;;22.10;99.90;;;;;;4992180;28;20418;-70
2021/09/15 12:15:21;;;;;;;9.27;8.67;;;22.10;99.90;;;;;;4992783;28;20403;-70
2021/09/15 12:17:58;;;;;;;9.87;9.07;;;22.10;99.90;;;;;;4992197;28;20957;-70
2021/09/15 12:20:42;;;;;;;9.33;8.73;;;22.10;99.90;;;;;;4992705;28;20183;-70
2021/09/15 12:23:09;;;;;;;11.17;10.33;;;22.10;99.90;;;;;;4992717;28;20414;-70
2021/09/15 12:25:35;;;;;;;10.40;9.63;;;22.10;99.90;;;;;;4992106;28;20450;-72
2021/09/15 12:28:01;;;;;;;11.27;10.40;;;22.10;99.90;;;;;;4992665;28;20490;-71
2021/09/15 12:30:27;;;;;;;10.20;9.50;;;22.10;99.90;;;;;;4992722;28;20411;-70
2021/09/15 12:32:58;;;;;;;11.00;10.40;;;22.20;99.90;;;;;;4991750;28;20646;-70
2021/09/15 12:35:33;;;;;;;9.20;8.60;;;22.20;99.90;;;;;;4992305;28;20422;-70
2021/09/15 12:38:07;;;;;;;9.97;9.10;;;22.20;99.90;;;;;;4992761;28;20415;-71
2021/09/15 12:40:35;;;;;;;7.97;7.37;;;22.20;99.90;;;;;;4995477;28;20403;-78
2021/09/15 12:43:10;;;;;;;8.70;8.00;;;22.30;99.90;;;;;;4996305;28;20423;-70